sensor_id;sensor_type;location;lat;lon;timestamp;P1;durP1;ratioP1;P2;durP2;ratioP2
17949;SDS011;9100;48.700;9.316;2022-09-24T00:00:10;7.9;;;7.2;;
17949;SDS011;9100;48.700;9.316;2022-09-24T00:01:10;7.9;;;7.2;;
17949;SDS011;9100;48.700;9.316;2022-09-24T00:02:10;7.9;;;7.2;;
17949;SDS011;9100;48.700;9.316;2022-09-24T00:03:08;7.7;;;7;;
17949;SDS011;9100;48.700;9.316;2022-09-24T00:03:10;7.7;;;7;;
17949;SDS011;9100;48.700;9.316;2022-09-24T00:04:10;7.7;;;7;;
17949;SDS011;9100;48.700;9.316;2022-09-24T00:05:10;7.7;;;7;;
17949;SDS011;9100;48.700;9.316;2022-09-24T00:06:10;7.7;;;7;;
17949;SDS011;9100;48.700;9.316;2022-09-24T00:07:10;7.7;;;7;;
17949;SDS011;9100;48.700;9.316;2022-09-24T00:08:08;8;;;6.5;;
17949;SDS011;9100;48.700;9.316;2022-09-24T00:08:10;8;;;6.5;;
17949;SDS011;9100;48.700;9.316;2022-09-24T00:09:10;8;;;6.5;;
17949;SDS011;9100;48.700;9.316;2022-09-24T00:10:10;8;;;6.5;;
17949;SDS011;9100;48.700;9.316;2022-09-24T00:11:10;8;;;6.5;;
17949;SDS011;9100;48.700;9.316;2022-09-24T00:12:10;8;;;6.5;;
17949;SDS011;9100;48.700;9.316;2022-09-24T00:13:10;9.6;;;7.2;;
17949;SDS011;9100;48.700;9.316;2022-09-24T00:13:11;9.6;;;7.2;;
17949;SDS011;9100;48.700;9.316;2022-09-24T00:14:10;9.6;;;7.2;;
17949;SDS011;9100;48.700;9.316;2022-09-24T00:15:10;9.6;;;7.2;;
17949;SDS011;9100;48.700;9.316;2022-09-24T00:16:11;9.6;;;7.2;;
17949;SDS011;9100;48.700;9.316;2022-09-24T00:17:10;9.6;;;7.2;;
17949;SDS011;9100;48.700;9.316;2022-09-24T00:18:08;7.4;;;6.7;;
17949;SDS011;9100;48.700;9.316;2022-09-24T00:18:10;7.4;;;6.7;;
17949;SDS011;9100;48.700;9.316;2022-09-24T00:19:10;7.4;;;6.7;;
17949;SDS011;9100;48.700;9.316;2022-09-24T00:20:10;7.4;;;6.7;;
17949;SDS011;9100;48.700;9.316;2022-09-24T00:21:11;7.4;;;6.7;;
17949;SDS011;9100;48.700;9.316;2022-09-24T00:22:10;7.4;;;6.7;;
17949;SDS011;9100;48.700;9.316;2022-09-24T00:23:09;7.2;;;6.4;;
17949;SDS011;9100;48.700;9.316;2022-09-24T00:23:10;7.2;;;6.4;;
17949;SDS011;9100;48.700;9.316;2022-09-24T00:24:12;7.2;;;6.4;;
17949;SDS011;9100;48.700;9.316;2022-09-24T00:25:10;7.2;;;6.4;;
17949;SDS011;9100;48.700;9.316;2022-09-24T00:26:10;7.2;;;6.4;;
17949;SDS011;9100;48.700;9.316;2022-09-24T00:27:10;7.2;;;6.4;;
17949;SDS011;9100;48.700;9.316;2022-09-24T00:28:08;10.1;;;7.2;;
17949;SDS011;9100;48.700;9.316;2022-09-24T00:28:10;10.1;;;7.2;;
17949;SDS011;9100;48.700;9.316;2022-09-24T00:29:10;10.1;;;7.2;;
17949;SDS011;9100;48.700;9.316;2022-09-24T00:30:10;10.1;;;7.2;;
17949;SDS011;9100;48.700;9.316;2022-09-24T00:31:10;10.1;;;7.2;;
17949;SDS011;9100;48.700;9.316;2022-09-24T00:32:10;10.1;;;7.2;;
17949;SDS011;9100;48.700;9.316;2022-09-24T00:33:08;10.2;;;7.5;;
17949;SDS011;9100;48.700;9.316;2022-09-24T00:33:10;10.2;;;7.5;;
17949;SDS011;9100;48.700;9.316;2022-09-24T00:34:10;10.2;;;7.5;;
17949;SDS011;9100;48.700;9.316;2022-09-24T00:35:10;10.2;;;7.5;;
17949;SDS011;9100;48.700;9.316;2022-09-24T00:36:10;10.2;;;7.5;;
17949;SDS011;9100;48.700;9.316;2022-09-24T00:37:10;10.2;;;7.5;;
17949;SDS011;9100;48.700;9.316;2022-09-24T00:38:08;7.5;;;6.9;;
17949;SDS011;9100;48.700;9.316;2022-09-24T00:38:10;7.5;;;6.9;;
17949;SDS011;9100;48.700;9.316;2022-09-24T00:39:10;7.5;;;6.9;;
17949;SDS011;9100;48.700;9.316;2022-09-24T00:40:10;7.5;;;6.9;;
17949;SDS011;9100;48.700;9.316;2022-09-24T00:41:10;7.5;;;6.9;;
17949;SDS011;9100;48.700;9.316;2022-09-24T00:42:10;7.5;;;6.9;;
17949;SDS011;9100;48.700;9.316;2022-09-24T00:43:25;9.4;;;7.1;;
17949;SDS011;9100;48.700;9.316;2022-09-24T00:43:27;9.4;;;7.1;;
17949;SDS011;9100;48.700;9.316;2022-09-24T00:44:46;9.4;;;7.1;;
17949;SDS011;9100;48.700;9.316;2022-09-24T00:45:10;9.4;;;7.1;;
17949;SDS011;9100;48.700;9.316;2022-09-24T00:46:12;9.4;;;7.1;;
17949;SDS011;9100;48.700;9.316;2022-09-24T00:47:10;9.4;;;7.1;;
17949;SDS011;9100;48.700;9.316;2022-09-24T00:48:08;12.9;;;7.5;;
17949;SDS011;9100;48.700;9.316;2022-09-24T00:48:10;12.9;;;7.5;;
17949;SDS011;9100;48.700;9.316;2022-09-24T00:49:11;12.9;;;7.5;;
17949;SDS011;9100;48.700;9.316;2022-09-24T00:50:13;12.9;;;7.5;;
17949;SDS011;9100;48.700;9.316;2022-09-24T00:51:11;12.9;;;7.5;;
17949;SDS011;9100;48.700;9.316;2022-09-24T00:52:10;12.9;;;7.5;;
17949;SDS011;9100;48.700;9.316;2022-09-24T00:53:09;8.8;;;7.3;;
17949;SDS011;9100;48.700;9.316;2022-09-24T00:53:10;8.8;;;7.3;;
17949;SDS011;9100;48.700;9.316;2022-09-24T00:54:11;8.8;;;7.3;;
17949;SDS011;9100;48.700;9.316;2022-09-24T00:55:10;8.8;;;7.3;;
17949;SDS011;9100;48.700;9.316;2022-09-24T00:56:10;8.8;;;7.3;;
17949;SDS011;9100;48.700;9.316;2022-09-24T00:57:10;8.8;;;7.3;;
17949;SDS011;9100;48.700;9.316;2022-09-24T00:58:08;9.6;;;6.7;;
17949;SDS011;9100;48.700;9.316;2022-09-24T00:58:10;9.6;;;6.7;;
17949;SDS011;9100;48.700;9.316;2022-09-24T00:59:10;9.6;;;6.7;;
17949;SDS011;9100;48.700;9.316;2022-09-24T01:00:10;9.6;;;6.7;;
17949;SDS011;9100;48.700;9.316;2022-09-24T01:01:10;9.6;;;6.7;;
17949;SDS011;9100;48.700;9.316;2022-09-24T01:02:10;9.6;;;6.7;;
17949;SDS011;9100;48.700;9.316;2022-09-24T01:03:09;7.7;;;7;;
17949;SDS011;9100;48.700;9.316;2022-09-24T01:03:11;7.7;;;7;;
17949;SDS011;9100;48.700;9.316;2022-09-24T01:04:10;7.7;;;7;;
17949;SDS011;9100;48.700;9.316;2022-09-24T01:05:10;7.7;;;7;;
17949;SDS011;9100;48.700;9.316;2022-09-24T01:06:10;7.7;;;7;;
17949;SDS011;9100;48.700;9.316;2022-09-24T01:07:10;7.7;;;7;;
17949;SDS011;9100;48.700;9.316;2022-09-24T01:08:10;9.4;;;6.9;;
17949;SDS011;9100;48.700;9.316;2022-09-24T01:08:10;9.4;;;6.9;;
17949;SDS011;9100;48.700;9.316;2022-09-24T01:09:10;9.4;;;6.9;;
17949;SDS011;9100;48.700;9.316;2022-09-24T01:10:10;9.4;;;6.9;;
17949;SDS011;9100;48.700;9.316;2022-09-24T01:11:13;9.4;;;6.9;;
17949;SDS011;9100;48.700;9.316;2022-09-24T01:12:12;9.4;;;6.9;;
17949;SDS011;9100;48.700;9.316;2022-09-24T01:13:11;6.9;;;6.2;;
17949;SDS011;9100;48.700;9.316;2022-09-24T01:13:11;6.9;;;6.2;;
17949;SDS011;9100;48.700;9.316;2022-09-24T01:14:15;6.9;;;6.2;;
17949;SDS011;9100;48.700;9.316;2022-09-24T01:15:13;6.9;;;6.2;;
17949;SDS011;9100;48.700;9.316;2022-09-24T01:16:12;6.9;;;6.2;;
17949;SDS011;9100;48.700;9.316;2022-09-24T01:17:12;6.9;;;6.2;;
17949;SDS011;9100;48.700;9.316;2022-09-24T01:18:10;7;;;6.2;;
17949;SDS011;9100;48.700;9.316;2022-09-24T01:18:11;7;;;6.2;;
17949;SDS011;9100;48.700;9.316;2022-09-24T01:19:16;7;;;6.2;;
17949;SDS011;9100;48.700;9.316;2022-09-24T01:21:15;7;;;6.2;;
17949;SDS011;9100;48.700;9.316;2022-09-24T01:21:18;7;;;6.2;;
17949;SDS011;9100;48.700;9.316;2022-09-24T01:22:11;7;;;6.2;;
17949;SDS011;9100;48.700;9.316;2022-09-24T01:23:12;7;;;6.4;;
17949;SDS011;9100;48.700;9.316;2022-09-24T01:23:13;7;;;6.4;;
17949;SDS011;9100;48.700;9.316;2022-09-24T01:24:14;7;;;6.4;;
17949;SDS011;9100;48.700;9.316;2022-09-24T01:25:12;7;;;6.4;;
17949;SDS011;9100;48.700;9.316;2022-09-24T01:26:14;7;;;6.4;;
17949;SDS011;9100;48.700;9.316;2022-09-24T01:27:10;7;;;6.4;;
17949;SDS011;9100;48.700;9.316;2022-09-24T01:28:14;6.4;;;5.8;;
17949;SDS011;9100;48.700;9.316;2022-09-24T01:28:16;6.4;;;5.8;;
17949;SDS011;9100;48.700;9.316;2022-09-24T01:29:17;6.4;;;5.8;;
17949;SDS011;9100;48.700;9.316;2022-09-24T01:30:10;6.4;;;5.8;;
17949;SDS011;9100;48.700;9.316;2022-09-24T01:31:11;6.4;;;5.8;;
17949;SDS011;9100;48.700;9.316;2022-09-24T01:32:11;6.4;;;5.8;;
17949;SDS011;9100;48.700;9.316;2022-09-24T01:33:09;7.4;;;6.3;;
17949;SDS011;9100;48.700;9.316;2022-09-24T01:33:10;7.4;;;6.3;;
17949;SDS011;9100;48.700;9.316;2022-09-24T01:34:10;7.4;;;6.3;;
17949;SDS011;9100;48.700;9.316;2022-09-24T01:35:11;7.4;;;6.3;;
17949;SDS011;9100;48.700;9.316;2022-09-24T01:36:10;7.4;;;6.3;;
17949;SDS011;9100;48.700;9.316;2022-09-24T01:37:10;7.4;;;6.3;;
17949;SDS011;9100;48.700;9.316;2022-09-24T01:38:10;10.9;;;6.4;;
17949;SDS011;9100;48.700;9.316;2022-09-24T01:38:12;10.9;;;6.4;;
17949;SDS011;9100;48.700;9.316;2022-09-24T01:39:10;10.9;;;6.4;;
17949;SDS011;9100;48.700;9.316;2022-09-24T01:40:10;10.9;;;6.4;;
17949;SDS011;9100;48.700;9.316;2022-09-24T01:41:10;10.9;;;6.4;;
17949;SDS011;9100;48.700;9.316;2022-09-24T01:42:10;10.9;;;6.4;;
17949;SDS011;9100;48.700;9.316;2022-09-24T01:43:08;8.4;;;6.9;;
17949;SDS011;9100;48.700;9.316;2022-09-24T01:43:10;8.4;;;6.9;;
17949;SDS011;9100;48.700;9.316;2022-09-24T01:44:10;8.4;;;6.9;;
17949;SDS011;9100;48.700;9.316;2022-09-24T01:45:10;8.4;;;6.9;;
17949;SDS011;9100;48.700;9.316;2022-09-24T01:46:10;8.4;;;6.9;;
17949;SDS011;9100;48.700;9.316;2022-09-24T01:47:11;8.4;;;6.9;;
17949;SDS011;9100;48.700;9.316;2022-09-24T01:48:08;7.3;;;6.8;;
17949;SDS011;9100;48.700;9.316;2022-09-24T01:48:10;7.3;;;6.8;;
17949;SDS011;9100;48.700;9.316;2022-09-24T01:49:10;7.3;;;6.8;;
17949;SDS011;9100;48.700;9.316;2022-09-24T01:50:11;7.3;;;6.8;;
17949;SDS011;9100;48.700;9.316;2022-09-24T01:51:11;7.3;;;6.8;;
17949;SDS011;9100;48.700;9.316;2022-09-24T01:52:11;7.3;;;6.8;;
17949;SDS011;9100;48.700;9.316;2022-09-24T01:53:09;8.3;;;7.5;;
17949;SDS011;9100;48.700;9.316;2022-09-24T01:53:11;8.3;;;7.5;;
17949;SDS011;9100;48.700;9.316;2022-09-24T01:54:14;8.3;;;7.5;;
17949;SDS011;9100;48.700;9.316;2022-09-24T01:55:11;8.3;;;7.5;;
17949;SDS011;9100;48.700;9.316;2022-09-24T01:56:11;8.3;;;7.5;;
17949;SDS011;9100;48.700;9.316;2022-09-24T01:57:11;8.3;;;7.5;;
17949;SDS011;9100;48.700;9.316;2022-09-24T01:58:09;7.8;;;6.6;;
17949;SDS011;9100;48.700;9.316;2022-09-24T01:58:10;7.8;;;6.6;;
17949;SDS011;9100;48.700;9.316;2022-09-24T01:59:11;7.8;;;6.6;;
17949;SDS011;9100;48.700;9.316;2022-09-24T02:00:10;7.8;;;6.6;;
17949;SDS011;9100;48.700;9.316;2022-09-24T02:01:11;7.8;;;6.6;;
17949;SDS011;9100;48.700;9.316;2022-09-24T02:02:11;7.8;;;6.6;;
17949;SDS011;9100;48.700;9.316;2022-09-24T02:03:09;7.3;;;6.7;;
17949;SDS011;9100;48.700;9.316;2022-09-24T02:03:11;7.3;;;6.7;;
17949;SDS011;9100;48.700;9.316;2022-09-24T02:04:10;7.3;;;6.7;;
17949;SDS011;9100;48.700;9.316;2022-09-24T02:05:11;7.3;;;6.7;;
17949;SDS011;9100;48.700;9.316;2022-09-24T02:06:11;7.3;;;6.7;;
17949;SDS011;9100;48.700;9.316;2022-09-24T02:07:11;7.3;;;6.7;;
17949;SDS011;9100;48.700;9.316;2022-09-24T02:08:09;7;;;6.4;;
17949;SDS011;9100;48.700;9.316;2022-09-24T02:08:10;7;;;6.4;;
17949;SDS011;9100;48.700;9.316;2022-09-24T02:09:27;7;;;6.4;;
17949;SDS011;9100;48.700;9.316;2022-09-24T02:10:12;7;;;6.4;;
17949;SDS011;9100;48.700;9.316;2022-09-24T02:11:10;7;;;6.4;;
17949;SDS011;9100;48.700;9.316;2022-09-24T02:12:11;7;;;6.4;;
17949;SDS011;9100;48.700;9.316;2022-09-24T02:13:09;7.4;;;6.7;;
17949;SDS011;9100;48.700;9.316;2022-09-24T02:13:10;7.4;;;6.7;;
17949;SDS011;9100;48.700;9.316;2022-09-24T02:14:11;7.4;;;6.7;;
17949;SDS011;9100;48.700;9.316;2022-09-24T02:15:10;7.4;;;6.7;;
17949;SDS011;9100;48.700;9.316;2022-09-24T02:16:10;7.4;;;6.7;;
17949;SDS011;9100;48.700;9.316;2022-09-24T02:17:10;7.4;;;6.7;;
17949;SDS011;9100;48.700;9.316;2022-09-24T02:18:10;8.8;;;7.9;;
17949;SDS011;9100;48.700;9.316;2022-09-24T02:18:10;8.8;;;7.9;;
17949;SDS011;9100;48.700;9.316;2022-09-24T02:19:10;8.8;;;7.9;;
17949;SDS011;9100;48.700;9.316;2022-09-24T02:20:11;8.8;;;7.9;;
17949;SDS011;9100;48.700;9.316;2022-09-24T02:21:11;8.8;;;7.9;;
17949;SDS011;9100;48.700;9.316;2022-09-24T02:22:10;8.8;;;7.9;;
17949;SDS011;9100;48.700;9.316;2022-09-24T02:23:08;8;;;6.8;;
17949;SDS011;9100;48.700;9.316;2022-09-24T02:23:10;8;;;6.8;;
17949;SDS011;9100;48.700;9.316;2022-09-24T02:24:11;8;;;6.8;;
17949;SDS011;9100;48.700;9.316;2022-09-24T02:25:11;8;;;6.8;;
17949;SDS011;9100;48.700;9.316;2022-09-24T02:26:10;8;;;6.8;;
17949;SDS011;9100;48.700;9.316;2022-09-24T02:27:10;8;;;6.8;;
17949;SDS011;9100;48.700;9.316;2022-09-24T02:28:08;8.1;;;7.2;;
17949;SDS011;9100;48.700;9.316;2022-09-24T02:28:10;8.1;;;7.2;;
17949;SDS011;9100;48.700;9.316;2022-09-24T02:29:10;8.1;;;7.2;;
17949;SDS011;9100;48.700;9.316;2022-09-24T02:30:10;8.1;;;7.2;;
17949;SDS011;9100;48.700;9.316;2022-09-24T02:31:10;8.1;;;7.2;;
17949;SDS011;9100;48.700;9.316;2022-09-24T02:32:11;8.1;;;7.2;;
17949;SDS011;9100;48.700;9.316;2022-09-24T02:33:09;8.9;;;6.8;;
17949;SDS011;9100;48.700;9.316;2022-09-24T02:33:10;8.9;;;6.8;;
17949;SDS011;9100;48.700;9.316;2022-09-24T02:34:11;8.9;;;6.8;;
17949;SDS011;9100;48.700;9.316;2022-09-24T02:35:10;8.9;;;6.8;;
17949;SDS011;9100;48.700;9.316;2022-09-24T02:36:10;8.9;;;6.8;;
17949;SDS011;9100;48.700;9.316;2022-09-24T02:37:11;8.9;;;6.8;;
17949;SDS011;9100;48.700;9.316;2022-09-24T02:38:14;9.1;;;7.9;;
17949;SDS011;9100;48.700;9.316;2022-09-24T02:38:14;9.1;;;7.9;;
17949;SDS011;9100;48.700;9.316;2022-09-24T02:39:10;9.1;;;7.9;;
17949;SDS011;9100;48.700;9.316;2022-09-24T02:40:11;9.1;;;7.9;;
17949;SDS011;9100;48.700;9.316;2022-09-24T02:41:10;9.1;;;7.9;;
17949;SDS011;9100;48.700;9.316;2022-09-24T02:42:11;9.1;;;7.9;;
17949;SDS011;9100;48.700;9.316;2022-09-24T02:43:08;9.4;;;7.4;;
17949;SDS011;9100;48.700;9.316;2022-09-24T02:43:10;9.4;;;7.4;;
17949;SDS011;9100;48.700;9.316;2022-09-24T02:44:10;9.4;;;7.4;;
17949;SDS011;9100;48.700;9.316;2022-09-24T02:45:10;9.4;;;7.4;;
17949;SDS011;9100;48.700;9.316;2022-09-24T02:46:10;9.4;;;7.4;;
17949;SDS011;9100;48.700;9.316;2022-09-24T02:47:10;9.4;;;7.4;;
17949;SDS011;9100;48.700;9.316;2022-09-24T02:48:08;8.2;;;7.4;;
17949;SDS011;9100;48.700;9.316;2022-09-24T02:48:10;8.2;;;7.4;;
17949;SDS011;9100;48.700;9.316;2022-09-24T02:49:10;8.2;;;7.4;;
17949;SDS011;9100;48.700;9.316;2022-09-24T02:50:10;8.2;;;7.4;;
17949;SDS011;9100;48.700;9.316;2022-09-24T02:51:10;8.2;;;7.4;;
17949;SDS011;9100;48.700;9.316;2022-09-24T02:52:10;8.2;;;7.4;;
17949;SDS011;9100;48.700;9.316;2022-09-24T02:53:08;9.3;;;6.8;;
17949;SDS011;9100;48.700;9.316;2022-09-24T02:53:10;9.3;;;6.8;;
17949;SDS011;9100;48.700;9.316;2022-09-24T02:54:10;9.3;;;6.8;;
17949;SDS011;9100;48.700;9.316;2022-09-24T02:55:10;9.3;;;6.8;;
17949;SDS011;9100;48.700;9.316;2022-09-24T02:56:10;9.3;;;6.8;;
17949;SDS011;9100;48.700;9.316;2022-09-24T02:57:10;9.3;;;6.8;;
17949;SDS011;9100;48.700;9.316;2022-09-24T02:58:08;9.3;;;7.3;;
17949;SDS011;9100;48.700;9.316;2022-09-24T02:58:10;9.3;;;7.3;;
17949;SDS011;9100;48.700;9.316;2022-09-24T02:59:10;9.3;;;7.3;;
17949;SDS011;9100;48.700;9.316;2022-09-24T03:00:10;9.3;;;7.3;;
17949;SDS011;9100;48.700;9.316;2022-09-24T03:01:10;9.3;;;7.3;;
17949;SDS011;9100;48.700;9.316;2022-09-24T03:02:10;9.3;;;7.3;;
17949;SDS011;9100;48.700;9.316;2022-09-24T03:03:08;7.9;;;6.9;;
17949;SDS011;9100;48.700;9.316;2022-09-24T03:03:10;7.9;;;6.9;;
17949;SDS011;9100;48.700;9.316;2022-09-24T03:04:10;7.9;;;6.9;;
17949;SDS011;9100;48.700;9.316;2022-09-24T03:05:10;7.9;;;6.9;;
17949;SDS011;9100;48.700;9.316;2022-09-24T03:06:10;7.9;;;6.9;;
17949;SDS011;9100;48.700;9.316;2022-09-24T03:07:10;7.9;;;6.9;;
17949;SDS011;9100;48.700;9.316;2022-09-24T03:08:08;8.2;;;7.4;;
17949;SDS011;9100;48.700;9.316;2022-09-24T03:08:10;8.2;;;7.4;;
17949;SDS011;9100;48.700;9.316;2022-09-24T03:09:10;8.2;;;7.4;;
17949;SDS011;9100;48.700;9.316;2022-09-24T03:10:10;8.2;;;7.4;;
17949;SDS011;9100;48.700;9.316;2022-09-24T03:11:10;8.2;;;7.4;;
17949;SDS011;9100;48.700;9.316;2022-09-24T03:12:10;8.2;;;7.4;;
17949;SDS011;9100;48.700;9.316;2022-09-24T03:13:08;9.4;;;8.2;;
17949;SDS011;9100;48.700;9.316;2022-09-24T03:13:10;9.4;;;8.2;;
17949;SDS011;9100;48.700;9.316;2022-09-24T03:14:10;9.4;;;8.2;;
17949;SDS011;9100;48.700;9.316;2022-09-24T03:15:10;9.4;;;8.2;;
17949;SDS011;9100;48.700;9.316;2022-09-24T03:16:10;9.4;;;8.2;;
17949;SDS011;9100;48.700;9.316;2022-09-24T03:17:10;9.4;;;8.2;;
17949;SDS011;9100;48.700;9.316;2022-09-24T03:18:08;11.3;;;7.9;;
17949;SDS011;9100;48.700;9.316;2022-09-24T03:18:10;11.3;;;7.9;;
17949;SDS011;9100;48.700;9.316;2022-09-24T03:19:10;11.3;;;7.9;;
17949;SDS011;9100;48.700;9.316;2022-09-24T03:20:10;11.3;;;7.9;;
17949;SDS011;9100;48.700;9.316;2022-09-24T03:21:11;11.3;;;7.9;;
17949;SDS011;9100;48.700;9.316;2022-09-24T03:22:10;11.3;;;7.9;;
17949;SDS011;9100;48.700;9.316;2022-09-24T03:23:08;8.5;;;7.6;;
17949;SDS011;9100;48.700;9.316;2022-09-24T03:23:10;8.5;;;7.6;;
17949;SDS011;9100;48.700;9.316;2022-09-24T03:24:10;8.5;;;7.6;;
17949;SDS011;9100;48.700;9.316;2022-09-24T03:25:10;8.5;;;7.6;;
17949;SDS011;9100;48.700;9.316;2022-09-24T03:26:10;8.5;;;7.6;;
17949;SDS011;9100;48.700;9.316;2022-09-24T03:27:10;8.5;;;7.6;;
17949;SDS011;9100;48.700;9.316;2022-09-24T03:28:08;8.8;;;7.5;;
17949;SDS011;9100;48.700;9.316;2022-09-24T03:28:10;8.8;;;7.5;;
17949;SDS011;9100;48.700;9.316;2022-09-24T03:29:10;8.8;;;7.5;;
17949;SDS011;9100;48.700;9.316;2022-09-24T03:30:10;8.8;;;7.5;;
17949;SDS011;9100;48.700;9.316;2022-09-24T03:31:10;8.8;;;7.5;;
17949;SDS011;9100;48.700;9.316;2022-09-24T03:32:10;8.8;;;7.5;;
17949;SDS011;9100;48.700;9.316;2022-09-24T03:33:08;8.6;;;7.9;;
17949;SDS011;9100;48.700;9.316;2022-09-24T03:33:10;8.6;;;7.9;;
17949;SDS011;9100;48.700;9.316;2022-09-24T03:34:10;8.6;;;7.9;;
17949;SDS011;9100;48.700;9.316;2022-09-24T03:35:10;8.6;;;7.9;;
17949;SDS011;9100;48.700;9.316;2022-09-24T03:36:10;8.6;;;7.9;;
17949;SDS011;9100;48.700;9.316;2022-09-24T03:37:10;8.6;;;7.9;;
17949;SDS011;9100;48.700;9.316;2022-09-24T03:38:08;9.1;;;8.2;;
17949;SDS011;9100;48.700;9.316;2022-09-24T03:38:10;9.1;;;8.2;;
17949;SDS011;9100;48.700;9.316;2022-09-24T03:39:10;9.1;;;8.2;;
17949;SDS011;9100;48.700;9.316;2022-09-24T03:40:10;9.1;;;8.2;;
17949;SDS011;9100;48.700;9.316;2022-09-24T03:41:10;9.1;;;8.2;;
17949;SDS011;9100;48.700;9.316;2022-09-24T03:42:10;9.1;;;8.2;;
17949;SDS011;9100;48.700;9.316;2022-09-24T03:43:08;8.9;;;8;;
17949;SDS011;9100;48.700;9.316;2022-09-24T03:43:10;8.9;;;8;;
17949;SDS011;9100;48.700;9.316;2022-09-24T03:44:10;8.9;;;8;;
17949;SDS011;9100;48.700;9.316;2022-09-24T03:45:10;8.9;;;8;;
17949;SDS011;9100;48.700;9.316;2022-09-24T03:46:10;8.9;;;8;;
17949;SDS011;9100;48.700;9.316;2022-09-24T03:47:10;8.9;;;8;;
17949;SDS011;9100;48.700;9.316;2022-09-24T03:48:08;9.6;;;8.1;;
17949;SDS011;9100;48.700;9.316;2022-09-24T03:48:10;9.6;;;8.1;;
17949;SDS011;9100;48.700;9.316;2022-09-24T03:49:10;9.6;;;8.1;;
17949;SDS011;9100;48.700;9.316;2022-09-24T03:50:10;9.6;;;8.1;;
17949;SDS011;9100;48.700;9.316;2022-09-24T03:51:10;9.6;;;8.1;;
17949;SDS011;9100;48.700;9.316;2022-09-24T03:52:10;9.6;;;8.1;;
17949;SDS011;9100;48.700;9.316;2022-09-24T03:53:09;8.4;;;7.1;;
17949;SDS011;9100;48.700;9.316;2022-09-24T03:53:10;8.4;;;7.1;;
17949;SDS011;9100;48.700;9.316;2022-09-24T03:54:10;8.4;;;7.1;;
17949;SDS011;9100;48.700;9.316;2022-09-24T03:55:10;8.4;;;7.1;;
17949;SDS011;9100;48.700;9.316;2022-09-24T03:56:10;8.4;;;7.1;;
17949;SDS011;9100;48.700;9.316;2022-09-24T03:57:10;8.4;;;7.1;;
17949;SDS011;9100;48.700;9.316;2022-09-24T03:58:08;10.1;;;8.6;;
17949;SDS011;9100;48.700;9.316;2022-09-24T03:58:10;10.1;;;8.6;;
17949;SDS011;9100;48.700;9.316;2022-09-24T03:59:10;10.1;;;8.6;;
17949;SDS011;9100;48.700;9.316;2022-09-24T04:00:10;10.1;;;8.6;;
17949;SDS011;9100;48.700;9.316;2022-09-24T04:01:10;10.1;;;8.6;;
17949;SDS011;9100;48.700;9.316;2022-09-24T04:02:10;10.1;;;8.6;;
17949;SDS011;9100;48.700;9.316;2022-09-24T04:03:08;9.3;;;6.8;;
17949;SDS011;9100;48.700;9.316;2022-09-24T04:03:11;9.3;;;6.8;;
17949;SDS011;9100;48.700;9.316;2022-09-24T04:04:10;9.3;;;6.8;;
17949;SDS011;9100;48.700;9.316;2022-09-24T04:05:10;9.3;;;6.8;;
17949;SDS011;9100;48.700;9.316;2022-09-24T04:06:10;9.3;;;6.8;;
17949;SDS011;9100;48.700;9.316;2022-09-24T04:07:10;9.3;;;6.8;;
17949;SDS011;9100;48.700;9.316;2022-09-24T04:08:08;8.6;;;7.8;;
17949;SDS011;9100;48.700;9.316;2022-09-24T04:08:10;8.6;;;7.8;;
17949;SDS011;9100;48.700;9.316;2022-09-24T04:09:10;8.6;;;7.8;;
17949;SDS011;9100;48.700;9.316;2022-09-24T04:10:10;8.6;;;7.8;;
17949;SDS011;9100;48.700;9.316;2022-09-24T04:11:10;8.6;;;7.8;;
17949;SDS011;9100;48.700;9.316;2022-09-24T04:12:10;8.6;;;7.8;;
17949;SDS011;9100;48.700;9.316;2022-09-24T04:13:08;9.7;;;7.5;;
17949;SDS011;9100;48.700;9.316;2022-09-24T04:13:10;9.7;;;7.5;;
17949;SDS011;9100;48.700;9.316;2022-09-24T04:14:10;9.7;;;7.5;;
17949;SDS011;9100;48.700;9.316;2022-09-24T04:15:10;9.7;;;7.5;;
17949;SDS011;9100;48.700;9.316;2022-09-24T04:16:10;9.7;;;7.5;;
17949;SDS011;9100;48.700;9.316;2022-09-24T04:17:10;9.7;;;7.5;;
17949;SDS011;9100;48.700;9.316;2022-09-24T04:18:08;9.5;;;7.5;;
17949;SDS011;9100;48.700;9.316;2022-09-24T04:18:10;9.5;;;7.5;;
17949;SDS011;9100;48.700;9.316;2022-09-24T04:19:10;9.5;;;7.5;;
17949;SDS011;9100;48.700;9.316;2022-09-24T04:20:10;9.5;;;7.5;;
17949;SDS011;9100;48.700;9.316;2022-09-24T04:21:10;9.5;;;7.5;;
17949;SDS011;9100;48.700;9.316;2022-09-24T04:22:10;9.5;;;7.5;;
17949;SDS011;9100;48.700;9.316;2022-09-24T04:23:08;8.8;;;7.9;;
17949;SDS011;9100;48.700;9.316;2022-09-24T04:23:10;8.8;;;7.9;;
17949;SDS011;9100;48.700;9.316;2022-09-24T04:24:10;8.8;;;7.9;;
17949;SDS011;9100;48.700;9.316;2022-09-24T04:25:10;8.8;;;7.9;;
17949;SDS011;9100;48.700;9.316;2022-09-24T04:26:10;8.8;;;7.9;;
17949;SDS011;9100;48.700;9.316;2022-09-24T04:27:10;8.8;;;7.9;;
17949;SDS011;9100;48.700;9.316;2022-09-24T04:28:08;11.9;;;7.5;;
17949;SDS011;9100;48.700;9.316;2022-09-24T04:28:10;11.9;;;7.5;;
17949;SDS011;9100;48.700;9.316;2022-09-24T04:29:10;11.9;;;7.5;;
17949;SDS011;9100;48.700;9.316;2022-09-24T04:30:10;11.9;;;7.5;;
17949;SDS011;9100;48.700;9.316;2022-09-24T04:31:10;11.9;;;7.5;;
17949;SDS011;9100;48.700;9.316;2022-09-24T04:32:10;11.9;;;7.5;;
17949;SDS011;9100;48.700;9.316;2022-09-24T04:33:08;8;;;7.1;;
17949;SDS011;9100;48.700;9.316;2022-09-24T04:33:10;8;;;7.1;;
17949;SDS011;9100;48.700;9.316;2022-09-24T04:34:10;8;;;7.1;;
17949;SDS011;9100;48.700;9.316;2022-09-24T04:35:10;8;;;7.1;;
17949;SDS011;9100;48.700;9.316;2022-09-24T04:36:10;8;;;7.1;;
17949;SDS011;9100;48.700;9.316;2022-09-24T04:37:10;8;;;7.1;;
17949;SDS011;9100;48.700;9.316;2022-09-24T04:38:08;8.5;;;7.6;;
17949;SDS011;9100;48.700;9.316;2022-09-24T04:38:10;8.5;;;7.6;;
17949;SDS011;9100;48.700;9.316;2022-09-24T04:39:10;8.5;;;7.6;;
17949;SDS011;9100;48.700;9.316;2022-09-24T04:40:10;8.5;;;7.6;;
17949;SDS011;9100;48.700;9.316;2022-09-24T04:41:10;8.5;;;7.6;;
17949;SDS011;9100;48.700;9.316;2022-09-24T04:42:14;8.5;;;7.6;;
17949;SDS011;9100;48.700;9.316;2022-09-24T04:43:08;8.9;;;7.4;;
17949;SDS011;9100;48.700;9.316;2022-09-24T04:43:10;8.9;;;7.4;;
17949;SDS011;9100;48.700;9.316;2022-09-24T04:44:10;8.9;;;7.4;;
17949;SDS011;9100;48.700;9.316;2022-09-24T04:45:10;8.9;;;7.4;;
17949;SDS011;9100;48.700;9.316;2022-09-24T04:46:10;8.9;;;7.4;;
17949;SDS011;9100;48.700;9.316;2022-09-24T04:47:10;8.9;;;7.4;;
17949;SDS011;9100;48.700;9.316;2022-09-24T04:48:08;8.1;;;7;;
17949;SDS011;9100;48.700;9.316;2022-09-24T04:48:10;8.1;;;7;;
17949;SDS011;9100;48.700;9.316;2022-09-24T04:49:10;8.1;;;7;;
17949;SDS011;9100;48.700;9.316;2022-09-24T04:50:10;8.1;;;7;;
17949;SDS011;9100;48.700;9.316;2022-09-24T04:51:10;8.1;;;7;;
17949;SDS011;9100;48.700;9.316;2022-09-24T04:52:10;8.1;;;7;;
17949;SDS011;9100;48.700;9.316;2022-09-24T04:53:08;9;;;6.5;;
17949;SDS011;9100;48.700;9.316;2022-09-24T04:53:10;9;;;6.5;;
17949;SDS011;9100;48.700;9.316;2022-09-24T04:54:10;9;;;6.5;;
17949;SDS011;9100;48.700;9.316;2022-09-24T04:55:10;9;;;6.5;;
17949;SDS011;9100;48.700;9.316;2022-09-24T04:56:10;9;;;6.5;;
17949;SDS011;9100;48.700;9.316;2022-09-24T04:57:10;9;;;6.5;;
17949;SDS011;9100;48.700;9.316;2022-09-24T04:58:08;8.4;;;7.6;;
17949;SDS011;9100;48.700;9.316;2022-09-24T04:58:10;8.4;;;7.6;;
17949;SDS011;9100;48.700;9.316;2022-09-24T04:59:10;8.4;;;7.6;;
17949;SDS011;9100;48.700;9.316;2022-09-24T05:00:11;8.4;;;7.6;;
17949;SDS011;9100;48.700;9.316;2022-09-24T05:01:10;8.4;;;7.6;;
17949;SDS011;9100;48.700;9.316;2022-09-24T05:02:10;8.4;;;7.6;;
17949;SDS011;9100;48.700;9.316;2022-09-24T05:03:08;9.9;;;8.9;;
17949;SDS011;9100;48.700;9.316;2022-09-24T05:03:10;9.9;;;8.9;;
17949;SDS011;9100;48.700;9.316;2022-09-24T05:04:10;9.9;;;8.9;;
17949;SDS011;9100;48.700;9.316;2022-09-24T05:05:10;9.9;;;8.9;;
17949;SDS011;9100;48.700;9.316;2022-09-24T05:06:10;9.9;;;8.9;;
17949;SDS011;9100;48.700;9.316;2022-09-24T05:07:11;9.9;;;8.9;;
17949;SDS011;9100;48.700;9.316;2022-09-24T05:08:08;12.6;;;8.7;;
17949;SDS011;9100;48.700;9.316;2022-09-24T05:08:10;12.6;;;8.7;;
17949;SDS011;9100;48.700;9.316;2022-09-24T05:09:10;12.6;;;8.7;;
17949;SDS011;9100;48.700;9.316;2022-09-24T05:10:10;12.6;;;8.7;;
17949;SDS011;9100;48.700;9.316;2022-09-24T05:11:10;12.6;;;8.7;;
17949;SDS011;9100;48.700;9.316;2022-09-24T05:12:10;12.6;;;8.7;;
17949;SDS011;9100;48.700;9.316;2022-09-24T05:13:08;9.8;;;7.4;;
17949;SDS011;9100;48.700;9.316;2022-09-24T05:13:10;9.8;;;7.4;;
17949;SDS011;9100;48.700;9.316;2022-09-24T05:14:10;9.8;;;7.4;;
17949;SDS011;9100;48.700;9.316;2022-09-24T05:15:10;9.8;;;7.4;;
17949;SDS011;9100;48.700;9.316;2022-09-24T05:16:10;9.8;;;7.4;;